createdAt,value
2022-11-02T00:00:22.924Z,11.20
2022-11-02T00:01:23.305Z,11.22
2022-11-02T00:02:23.576Z,11.19
2022-11-02T00:03:23.765Z,11.20
2022-11-02T00:04:24.065Z,11.22
2022-11-02T00:05:24.349Z,11.22
2022-11-02T00:06:24.644Z,11.22
2022-11-02T00:07:24.955Z,11.22
2022-11-02T00:08:25.247Z,11.22
2022-11-02T00:09:25.543Z,11.23
2022-11-02T00:10:25.845Z,11.22
2022-11-02T00:11:26.141Z,11.19
2022-11-02T00:12:26.456Z,11.19
2022-11-02T00:13:26.775Z,11.18
2022-11-02T00:14:27.082Z,11.15
2022-11-02T00:15:27.373Z,11.15
2022-11-02T00:16:27.668Z,11.15
2022-11-02T00:17:27.981Z,11.12
2022-11-02T00:18:28.272Z,11.13
2022-11-02T00:19:28.570Z,11.13
2022-11-02T00:20:28.864Z,11.13
2022-11-02T00:21:29.185Z,11.15
2022-11-02T00:22:29.501Z,11.13
2022-11-02T00:23:29.794Z,11.12
2022-11-02T00:24:30.101Z,11.12
2022-11-02T00:25:30.393Z,11.10
2022-11-02T00:26:30.698Z,11.10
2022-11-02T00:27:31.008Z,11.08
2022-11-02T00:28:31.311Z,11.08
2022-11-02T00:29:34.023Z,11.05
2022-11-02T00:30:31.872Z,11.05
2022-11-02T00:31:32.179Z,11.04
2022-11-02T00:32:32.578Z,11.04
2022-11-02T00:33:32.849Z,11.04
2022-11-02T00:34:33.144Z,11.02
2022-11-02T00:35:33.450Z,11.01
2022-11-02T00:36:33.816Z,10.98
2022-11-02T00:38:34.441Z,10.95
2022-11-02T00:39:34.732Z,10.92
2022-11-02T00:40:35.028Z,10.92
2022-11-02T00:41:35.327Z,10.92
2022-11-02T00:42:35.652Z,10.90
2022-11-02T00:43:35.937Z,10.90
2022-11-02T00:44:36.228Z,10.87
2022-11-02T00:45:36.525Z,10.86
2022-11-02T00:46:36.819Z,10.86
2022-11-02T00:47:37.137Z,10.84
2022-11-02T00:48:37.429Z,10.83
2022-11-02T00:49:37.732Z,10.80
2022-11-02T00:50:38.026Z,10.79
2022-11-02T00:51:38.320Z,10.76
2022-11-02T00:52:38.644Z,10.79
2022-11-02T00:53:38.962Z,10.77
2022-11-02T00:54:39.253Z,10.77
2022-11-02T00:55:39.544Z,10.76
2022-11-02T00:56:39.867Z,10.77
2022-11-02T00:57:47.197Z,10.76
2022-11-02T00:58:40.444Z,10.76
2022-11-02T00:59:40.741Z,10.75
2022-11-02T01:00:42.761Z,10.71
2022-11-02T01:01:41.508Z,10.71
2022-11-02T01:02:41.784Z,10.68
2022-11-02T01:03:41.933Z,10.62
2022-11-02T01:04:42.216Z,10.62
2022-11-02T01:05:42.510Z,10.61
2022-11-02T01:06:42.813Z,10.59
2022-11-02T01:07:43.130Z,10.58
2022-11-02T01:08:43.446Z,10.57
2022-11-02T01:09:43.772Z,10.57
2022-11-02T01:10:47.297Z,10.57
2022-11-02T01:11:44.369Z,10.57
2022-11-02T01:12:44.698Z,10.53
2022-11-02T01:13:45.016Z,10.53
2022-11-02T01:14:45.339Z,10.49
2022-11-02T01:15:45.619Z,10.48
2022-11-02T01:17:46.310Z,10.43
2022-11-02T01:18:46.604Z,10.42
2022-11-02T01:19:46.921Z,10.42
2022-11-02T01:20:47.244Z,10.42
2022-11-02T01:21:47.556Z,10.41
2022-11-02T01:22:47.870Z,10.39
2022-11-02T01:23:48.175Z,10.39
2022-11-02T01:24:48.495Z,10.38
2022-11-02T01:25:48.813Z,10.36
2022-11-02T01:26:49.110Z,10.36
2022-11-02T01:27:49.432Z,10.34
2022-11-02T01:28:49.727Z,10.34
2022-11-02T01:29:50.047Z,10.33
2022-11-02T01:30:50.345Z,10.30
2022-11-02T01:31:50.644Z,10.28
2022-11-02T01:32:50.979Z,10.27
2022-11-02T01:33:51.274Z,10.27
2022-11-02T01:34:51.583Z,10.24
2022-11-02T01:35:51.896Z,10.25
2022-11-02T01:36:52.213Z,10.23
2022-11-02T01:37:52.533Z,10.23
2022-11-02T01:38:52.845Z,10.20
2022-11-02T01:39:53.160Z,10.18
2022-11-02T01:40:53.462Z,10.17
2022-11-02T01:41:53.772Z,10.13
2022-11-02T01:42:54.102Z,10.13
2022-11-02T01:43:54.391Z,10.15
2022-11-02T01:44:54.710Z,10.12
2022-11-02T01:45:55.001Z,10.12
2022-11-02T01:46:55.329Z,10.15
2022-11-02T01:47:55.619Z,10.17
2022-11-02T01:48:55.920Z,10.18
2022-11-02T01:49:56.228Z,10.15
2022-11-02T01:50:56.528Z,10.15
2022-11-02T01:51:56.838Z,10.15
2022-11-02T01:52:57.171Z,10.17
2022-11-02T01:53:57.468Z,10.15
2022-11-02T01:54:57.785Z,10.18
2022-11-02T01:55:58.111Z,10.13
2022-11-02T01:56:58.420Z,10.13
2022-11-02T01:57:58.723Z,10.12
2022-11-02T01:58:59.024Z,10.10
2022-11-02T01:59:59.327Z,10.09
2022-11-02T02:00:59.627Z,10.09
2022-11-02T02:02:00.061Z,10.07
2022-11-02T02:03:00.238Z,10.07
2022-11-02T02:04:00.540Z,10.10
2022-11-02T02:05:00.854Z,10.10
2022-11-02T02:06:01.152Z,10.10
2022-11-02T02:07:01.456Z,10.12
2022-11-02T02:08:02.134Z,10.13
2022-11-02T02:09:02.077Z,10.10
2022-11-02T02:10:02.379Z,10.10
2022-11-02T02:11:02.702Z,10.10
2022-11-02T02:12:03.002Z,10.10
2022-11-02T02:13:03.324Z,10.10
2022-11-02T02:14:03.621Z,10.10
2022-11-02T02:15:03.923Z,10.10
2022-11-02T02:16:04.223Z,10.10
2022-11-02T02:17:04.542Z,10.09
2022-11-02T02:18:05.146Z,10.10
2022-11-02T02:19:05.116Z,10.13
2022-11-02T02:20:05.416Z,10.13
2022-11-02T02:21:05.724Z,10.13
2022-11-02T02:22:06.038Z,10.10
2022-11-02T02:23:06.352Z,10.10
2022-11-02T02:24:06.648Z,10.09
2022-11-02T02:25:06.957Z,10.10
2022-11-02T02:26:07.251Z,10.13
2022-11-02T02:27:07.549Z,10.13
2022-11-02T02:28:07.881Z,10.12
2022-11-02T02:29:08.183Z,10.12
2022-11-02T02:30:08.472Z,10.09
2022-11-02T02:31:08.773Z,10.03
2022-11-02T02:32:09.081Z,10.06
2022-11-02T02:33:09.396Z,10.03
2022-11-02T02:34:09.700Z,10.03
2022-11-02T02:35:09.998Z,10.00
2022-11-02T02:36:10.298Z,9.97
2022-11-02T02:37:10.613Z,9.97
2022-11-02T02:38:10.918Z,9.92
2022-11-02T02:39:11.257Z,9.94
2022-11-02T02:40:11.552Z,9.95
2022-11-02T02:41:12.001Z,9.94
2022-11-02T02:42:12.186Z,9.91
2022-11-02T02:43:12.509Z,9.92
2022-11-02T02:44:12.807Z,9.94
2022-11-02T02:45:13.122Z,9.99
2022-11-02T02:46:13.516Z,9.97
2022-11-02T02:47:13.740Z,9.94
2022-11-02T02:48:14.089Z,9.94
2022-11-02T02:49:14.386Z,9.95
2022-11-02T02:50:14.693Z,9.95
2022-11-02T02:51:15.101Z,9.95
2022-11-02T02:52:15.298Z,9.94
2022-11-02T02:53:15.614Z,9.92
2022-11-02T02:54:15.912Z,9.90
2022-11-02T02:55:16.217Z,9.91
2022-11-02T02:56:16.526Z,9.90
2022-11-02T02:57:16.849Z,9.90
2022-11-02T02:58:17.162Z,9.90
2022-11-02T02:59:17.481Z,9.87
2022-11-02T03:00:17.784Z,9.87
2022-11-02T03:01:18.156Z,9.85
2022-11-02T03:02:18.669Z,9.84
2022-11-02T03:03:18.725Z,9.81
2022-11-02T03:04:19.037Z,9.80
2022-11-02T03:05:19.355Z,9.76
2022-11-02T03:06:19.669Z,9.74
2022-11-02T03:07:19.955Z,9.73
2022-11-02T03:08:20.282Z,9.73
2022-11-02T03:09:20.583Z,9.72
2022-11-02T03:10:20.881Z,9.72
2022-11-02T03:11:21.180Z,9.72
2022-11-02T03:12:21.483Z,9.72
2022-11-02T03:13:21.812Z,9.73
2022-11-02T03:14:22.102Z,9.74
2022-11-02T03:15:22.400Z,9.74
2022-11-02T03:16:22.700Z,9.73
2022-11-02T03:17:23.001Z,9.73
2022-11-02T03:18:23.332Z,9.73
2022-11-02T03:19:23.644Z,9.70
2022-11-02T03:20:23.938Z,9.70
2022-11-02T03:21:24.228Z,9.72
2022-11-02T03:22:24.537Z,9.69
2022-11-02T03:23:24.957Z,9.67
2022-11-02T03:24:25.158Z,9.66
2022-11-02T03:25:25.449Z,9.67
2022-11-02T03:26:25.757Z,9.67
2022-11-02T03:27:26.056Z,9.67
2022-11-02T03:28:26.408Z,9.64
2022-11-02T03:29:26.707Z,9.64
2022-11-02T03:30:27.006Z,9.64
2022-11-02T03:31:27.302Z,9.63
2022-11-02T03:32:27.609Z,9.64
2022-11-02T03:33:27.925Z,9.63
2022-11-02T03:34:28.230Z,9.64
2022-11-02T03:35:29.487Z,9.63
2022-11-02T03:36:28.897Z,9.63
2022-11-02T03:37:29.203Z,9.63
2022-11-02T03:38:29.538Z,9.63
2022-11-02T03:39:29.856Z,9.59
2022-11-02T03:40:30.166Z,9.59
2022-11-02T03:41:30.473Z,9.58
2022-11-02T03:42:30.810Z,9.55
2022-11-02T03:43:31.131Z,9.55
2022-11-02T03:44:31.434Z,9.54
2022-11-02T03:45:31.756Z,9.54
2022-11-02T03:46:32.085Z,9.52
2022-11-02T03:47:32.392Z,9.52
2022-11-02T03:48:32.716Z,9.51
2022-11-02T03:49:33.026Z,9.51
2022-11-02T03:50:33.333Z,9.52
2022-11-02T03:51:33.631Z,9.52
2022-11-02T03:52:33.940Z,9.52
2022-11-02T03:53:34.266Z,9.49
2022-11-02T03:54:34.575Z,9.48
2022-11-02T03:55:34.872Z,9.47
2022-11-02T03:56:35.305Z,9.45
2022-11-02T03:57:35.471Z,9.44
2022-11-02T03:58:35.788Z,9.44
2022-11-02T03:59:36.111Z,9.40
2022-11-02T04:00:36.401Z,9.40
2022-11-02T04:01:36.759Z,9.37
2022-11-02T04:02:37.023Z,9.37
2022-11-02T04:03:37.323Z,9.36
2022-11-02T04:04:37.629Z,9.37
2022-11-02T04:05:37.938Z,9.33
2022-11-02T04:06:38.237Z,9.33
2022-11-02T04:07:38.569Z,9.31
2022-11-02T04:08:38.878Z,9.30
2022-11-02T04:09:39.199Z,9.27
2022-11-02T04:10:39.511Z,9.27
2022-11-02T04:11:39.821Z,9.27
2022-11-02T04:12:40.146Z,9.27
2022-11-02T04:13:40.469Z,9.26
2022-11-02T04:14:40.787Z,9.24
2022-11-02T04:15:41.085Z,9.21
2022-11-02T04:16:41.395Z,9.19
2022-11-02T04:17:41.705Z,9.16
2022-11-02T04:18:42.033Z,9.13
2022-11-02T04:19:45.499Z,9.12
2022-11-02T04:20:43.616Z,9.11
2022-11-02T04:21:42.922Z,9.13
2022-11-02T04:22:43.227Z,9.11
2022-11-02T04:23:43.554Z,9.11
2022-11-02T04:24:43.865Z,9.08
2022-11-02T04:25:44.181Z,9.09
2022-11-02T04:26:44.496Z,9.08
2022-11-02T04:27:44.785Z,9.09
2022-11-02T04:28:45.117Z,9.09
2022-11-02T04:29:45.422Z,9.08
2022-11-02T04:30:45.732Z,9.05
2022-11-02T04:31:46.043Z,9.05
2022-11-02T04:32:46.354Z,9.09
2022-11-02T04:33:46.675Z,9.09
2022-11-02T04:34:46.987Z,9.08
2022-11-02T04:35:47.356Z,9.05
2022-11-02T04:36:47.662Z,9.05
2022-11-02T04:37:47.971Z,9.08
2022-11-02T04:38:48.300Z,9.05
2022-11-02T04:39:48.611Z,9.08
2022-11-02T04:40:48.909Z,9.08
2022-11-02T04:41:49.212Z,9.09
2022-11-02T04:42:49.520Z,9.08
2022-11-02T04:43:49.844Z,9.09
2022-11-02T04:44:50.158Z,9.09
2022-11-02T04:45:50.467Z,9.09
2022-11-02T04:46:50.791Z,9.09
2022-11-02T04:47:51.110Z,9.09
2022-11-02T04:48:51.467Z,9.09
2022-11-02T04:49:51.771Z,9.11
2022-11-02T04:50:52.085Z,9.08
2022-11-02T04:51:52.406Z,9.05
2022-11-02T04:52:52.722Z,9.05
2022-11-02T04:53:53.057Z,9.05
2022-11-02T04:54:53.365Z,9.03
2022-11-02T04:55:53.678Z,9.05
2022-11-02T04:56:53.995Z,9.03
2022-11-02T04:57:54.389Z,9.05
2022-11-02T04:58:54.716Z,9.08
2022-11-02T04:59:55.016Z,9.03
2022-11-02T05:00:55.326Z,9.05
2022-11-02T05:01:55.727Z,9.03
2022-11-02T05:02:56.070Z,9.05
2022-11-02T05:03:56.322Z,9.05
2022-11-02T05:04:56.644Z,9.02
2022-11-02T05:05:56.999Z,9.00
2022-11-02T05:07:01.266Z,8.99
2022-11-02T05:07:57.665Z,8.99
2022-11-02T05:08:58.002Z,8.97
2022-11-02T05:09:58.316Z,9.02
2022-11-02T05:10:58.662Z,9.03
2022-11-02T05:11:58.962Z,9.08
2022-11-02T05:12:59.284Z,9.08
2022-11-02T05:13:59.602Z,9.09
2022-11-02T05:14:59.922Z,9.11
2022-11-02T05:16:00.262Z,9.08
2022-11-02T05:17:00.560Z,9.11
2022-11-02T05:18:00.942Z,9.18
2022-11-02T05:19:01.652Z,9.19
2022-11-02T05:20:01.559Z,9.18
2022-11-02T05:21:01.924Z,9.21
2022-11-02T05:22:02.249Z,9.22
2022-11-02T05:23:02.954Z,9.22
2022-11-02T05:24:02.877Z,9.18
2022-11-02T05:25:03.190Z,9.19
2022-11-02T05:26:03.502Z,9.19
2022-11-02T05:27:03.854Z,9.18
2022-11-02T05:28:04.219Z,9.16
2022-11-02T05:29:04.604Z,9.18
2022-11-02T05:30:04.878Z,9.19
2022-11-02T05:31:05.199Z,9.19
2022-11-02T05:32:05.570Z,9.21
2022-11-02T05:33:06.291Z,9.21
2022-11-02T05:34:06.259Z,9.19
2022-11-02T05:35:06.578Z,9.18
2022-11-02T05:36:06.826Z,9.16
2022-11-02T05:37:07.195Z,9.18
2022-11-02T05:38:07.577Z,9.18
2022-11-02T05:39:07.946Z,9.16
2022-11-02T05:40:08.318Z,9.16
2022-11-02T05:41:08.690Z,9.18
2022-11-02T05:42:09.047Z,9.18
2022-11-02T05:43:09.511Z,9.19
2022-11-02T05:44:10.130Z,9.18
2022-11-02T05:45:10.174Z,9.18
2022-11-02T05:46:10.455Z,9.18
2022-11-02T05:47:10.744Z,9.18
2022-11-02T05:48:11.025Z,9.19
2022-11-02T05:49:11.408Z,9.19
2022-11-02T05:50:11.733Z,9.21
2022-11-02T05:51:12.060Z,9.21
2022-11-02T05:52:12.426Z,9.21
2022-11-02T05:53:12.734Z,9.21
2022-11-02T05:54:13.062Z,9.22
2022-11-02T05:55:13.383Z,9.22
2022-11-02T05:56:13.694Z,9.22
2022-11-02T05:57:14.013Z,9.24
2022-11-02T05:58:14.326Z,9.26
2022-11-02T05:59:14.654Z,9.24
2022-11-02T06:00:14.960Z,9.24
2022-11-02T06:01:15.333Z,9.22
2022-11-02T06:02:15.553Z,9.22
2022-11-02T06:03:15.870Z,9.24
2022-11-02T06:04:16.264Z,9.21
2022-11-02T06:05:16.508Z,9.22
2022-11-02T06:06:16.908Z,9.26
2022-11-02T06:07:17.179Z,9.26
2022-11-02T06:08:17.490Z,9.29
2022-11-02T06:09:17.824Z,9.27
2022-11-02T06:10:18.160Z,9.29
2022-11-02T06:11:18.478Z,9.30
2022-11-02T06:12:18.787Z,9.31
2022-11-02T06:13:19.093Z,9.31
2022-11-02T06:14:19.421Z,9.31
2022-11-02T06:15:19.731Z,9.33
2022-11-02T06:16:23.008Z,9.33
2022-11-02T06:17:20.408Z,9.36
2022-11-02T06:18:20.721Z,9.40
2022-11-02T06:19:21.073Z,9.40
2022-11-02T06:20:21.379Z,9.42
2022-11-02T06:21:21.687Z,9.44
2022-11-02T06:22:22.027Z,9.45
2022-11-02T06:23:22.336Z,9.45
2022-11-02T06:24:22.653Z,9.45
2022-11-02T06:25:22.966Z,9.45
2022-11-02T06:26:23.265Z,9.47
2022-11-02T06:27:23.587Z,9.47
2022-11-02T06:28:23.892Z,9.49
2022-11-02T06:29:24.243Z,9.47
2022-11-02T06:30:24.547Z,9.48
2022-11-02T06:31:24.862Z,9.51
2022-11-02T06:32:25.175Z,9.51
2022-11-02T06:33:25.475Z,9.54
2022-11-02T06:34:25.803Z,9.54
2022-11-02T06:35:26.113Z,9.54
2022-11-02T06:36:26.434Z,9.55
2022-11-02T06:37:26.733Z,9.55
2022-11-02T06:38:27.039Z,9.58
2022-11-02T06:39:27.435Z,9.63
2022-11-02T06:40:27.647Z,9.66
2022-11-02T06:41:27.953Z,9.69
2022-11-02T06:42:28.285Z,9.72
2022-11-02T06:43:28.586Z,9.74
2022-11-02T06:44:28.910Z,9.80
2022-11-02T06:45:29.234Z,9.81
2022-11-02T06:46:29.526Z,9.84
2022-11-02T06:47:29.857Z,9.87
2022-11-02T06:48:34.896Z,9.91
2022-11-02T06:49:31.468Z,9.94
2022-11-02T06:50:30.760Z,9.94
2022-11-02T06:51:31.064Z,9.94
2022-11-02T06:52:31.374Z,9.94
2022-11-02T06:53:31.689Z,9.95
2022-11-02T06:54:32.019Z,10.02
2022-11-02T06:55:32.338Z,10.09
2022-11-02T06:56:32.648Z,10.36
2022-11-02T06:57:32.955Z,10.89
2022-11-02T06:58:40.280Z,11.13
2022-11-02T06:59:33.550Z,10.89
2022-11-02T07:00:33.972Z,11.04
2022-11-02T07:01:34.999Z,11.26
2022-11-02T07:02:34.555Z,11.25
2022-11-02T07:03:34.739Z,11.48
2022-11-02T07:04:35.053Z,11.81
2022-11-02T07:05:35.351Z,12.20
2022-11-02T07:06:35.659Z,12.51
2022-11-02T07:07:35.962Z,12.72
2022-11-02T07:08:36.273Z,12.86
2022-11-02T07:09:36.586Z,13.03
2022-11-02T07:10:36.878Z,12.86
2022-11-02T07:11:37.158Z,12.43
2022-11-02T07:12:37.447Z,11.86
2022-11-02T07:13:37.736Z,11.44
2022-11-02T07:14:38.079Z,11.33
2022-11-02T07:15:38.364Z,11.15
2022-11-02T07:16:38.647Z,11.05
2022-11-02T07:17:38.924Z,11.01
2022-11-02T07:18:39.218Z,11.34
2022-11-02T07:19:39.535Z,11.99
2022-11-02T07:20:39.827Z,12.48
2022-11-02T07:21:42.416Z,12.76
2022-11-02T07:22:41.358Z,13.19
2022-11-02T07:23:40.643Z,13.50
2022-11-02T07:24:40.923Z,13.52
2022-11-02T07:25:41.205Z,13.78
2022-11-02T07:26:41.475Z,14.00
2022-11-02T07:27:41.775Z,14.19
2022-11-02T07:28:42.056Z,14.55
2022-11-02T07:29:42.344Z,14.44
2022-11-02T07:30:42.613Z,14.53
2022-11-02T07:31:42.897Z,14.58
2022-11-02T07:32:43.169Z,14.78
2022-11-02T07:33:43.439Z,14.90
2022-11-02T07:34:43.724Z,14.85
2022-11-02T07:35:43.986Z,14.96
2022-11-02T07:36:44.259Z,14.82
2022-11-02T07:37:44.553Z,14.82
2022-11-02T07:38:44.796Z,15.10
2022-11-02T07:39:45.073Z,14.96
2022-11-02T07:40:45.382Z,15.33
2022-11-02T07:41:50.791Z,15.41
2022-11-02T07:42:46.845Z,15.54
2022-11-02T07:43:46.086Z,15.78
2022-11-02T07:44:46.361Z,15.65
2022-11-02T07:45:46.617Z,15.32
2022-11-02T07:46:46.878Z,15.50
2022-11-02T07:47:47.141Z,15.62
2022-11-02T07:48:47.391Z,16.00
2022-11-02T07:49:47.651Z,16.24
2022-11-02T07:50:47.897Z,16.08
2022-11-02T07:51:48.132Z,16.02
2022-11-02T07:52:48.381Z,16.06
2022-11-02T07:53:48.621Z,16.24
2022-11-02T07:54:48.865Z,16.06
2022-11-02T07:55:49.175Z,16.25
2022-11-02T07:56:49.390Z,16.74
2022-11-02T07:57:49.769Z,16.57
2022-11-02T07:58:49.894Z,17.04
2022-11-02T07:59:50.161Z,17.41
2022-11-02T08:00:50.423Z,17.46
2022-11-02T08:01:50.726Z,17.37
2022-11-02T08:02:50.933Z,16.94
2022-11-02T08:03:51.085Z,16.40
2022-11-02T08:04:52.235Z,16.09
2022-11-02T08:05:51.640Z,15.26
2022-11-02T08:06:51.748Z,14.44
2022-11-02T08:07:51.979Z,14.13
2022-11-02T08:08:53.158Z,14.68
2022-11-02T08:09:52.567Z,14.48
2022-11-02T08:10:52.678Z,14.07
2022-11-02T08:11:53.005Z,13.71
2022-11-02T08:12:53.141Z,13.54
2022-11-02T08:13:53.371Z,13.42
2022-11-02T08:14:54.499Z,13.46
2022-11-02T08:15:53.950Z,13.89
2022-11-02T08:16:54.112Z,14.30
2022-11-02T08:17:54.357Z,14.18
2022-11-02T08:18:54.606Z,14.00
2022-11-02T08:19:54.874Z,14.11
2022-11-02T08:20:56.487Z,14.04
2022-11-02T08:21:55.375Z,13.83
2022-11-02T08:22:56.507Z,13.73
2022-11-02T08:23:58.548Z,13.61
2022-11-02T08:24:56.191Z,13.80
2022-11-02T08:25:56.359Z,14.04
2022-11-02T08:26:56.640Z,13.94
2022-11-02T08:27:56.899Z,13.86
2022-11-02T08:28:57.142Z,13.76
2022-11-02T08:29:57.420Z,13.70
2022-11-02T08:30:57.613Z,13.47
2022-11-02T08:31:57.882Z,13.27
2022-11-02T08:32:58.158Z,13.12
2022-11-02T08:33:58.423Z,13.02
2022-11-02T08:34:58.732Z,12.90
2022-11-02T08:35:59.123Z,12.88
2022-11-02T08:36:59.282Z,12.90
2022-11-02T08:37:59.580Z,12.86
2022-11-02T08:38:59.860Z,12.90
2022-11-02T08:40:00.179Z,12.90
2022-11-02T08:41:00.438Z,12.90
2022-11-02T08:42:00.718Z,12.93
2022-11-02T08:43:01.007Z,12.91
2022-11-02T08:44:01.289Z,12.90
2022-11-02T08:45:01.591Z,12.87
2022-11-02T08:46:14.909Z,12.84
2022-11-02T08:47:05.478Z,12.84
2022-11-02T08:48:03.758Z,12.86
2022-11-02T08:49:02.701Z,12.84
2022-11-02T08:50:03.009Z,12.80
2022-11-02T08:51:03.328Z,12.81
2022-11-02T08:52:03.609Z,12.80
2022-11-02T08:53:03.897Z,12.81
2022-11-02T08:54:04.170Z,12.87
2022-11-02T08:55:04.468Z,12.91
2022-11-02T08:56:04.773Z,12.94
2022-11-02T08:57:05.055Z,12.94
2022-11-02T08:58:05.631Z,13.01
2022-11-02T08:59:05.639Z,13.01
2022-11-02T09:00:05.955Z,13.03
2022-11-02T09:01:06.242Z,13.03
2022-11-02T09:02:06.637Z,13.27
2022-11-02T09:03:06.803Z,14.41
2022-11-02T09:04:07.121Z,15.14
2022-11-02T09:05:07.391Z,15.98
2022-11-02T09:06:07.677Z,16.25
2022-11-02T09:07:08.046Z,16.77
2022-11-02T09:08:08.569Z,16.12
2022-11-02T09:09:09.478Z,15.96
2022-11-02T09:10:08.820Z,15.78
2022-11-02T09:11:09.543Z,15.36
2022-11-02T09:12:09.314Z,15.08
2022-11-02T09:13:09.553Z,15.26
2022-11-02T09:14:09.760Z,16.03
2022-11-02T09:15:09.917Z,16.77
2022-11-02T09:16:10.197Z,17.68
2022-11-02T09:17:10.449Z,18.12
2022-11-02T09:18:10.700Z,18.51
2022-11-02T09:19:10.930Z,18.55
2022-11-02T09:20:11.185Z,18.76
2022-11-02T09:21:11.410Z,18.86
2022-11-02T09:22:11.655Z,18.81
2022-11-02T09:23:11.874Z,18.70
2022-11-02T09:24:12.076Z,18.53
2022-11-02T09:25:12.316Z,18.66
2022-11-02T09:26:12.532Z,18.52
2022-11-02T09:27:12.772Z,18.46
2022-11-02T09:28:12.991Z,18.67
2022-11-02T09:29:13.230Z,18.88
2022-11-02T09:30:13.463Z,19.07
2022-11-02T09:31:13.691Z,18.98
2022-11-02T09:32:13.878Z,18.92
2022-11-02T09:33:14.080Z,19.08
2022-11-02T09:34:14.289Z,19.01
2022-11-02T09:35:14.516Z,19.04
2022-11-02T09:36:14.715Z,19.07
2022-11-02T09:37:14.922Z,19.22
2022-11-02T09:38:15.127Z,19.55
2022-11-02T09:39:15.380Z,19.44
2022-11-02T09:40:15.583Z,19.37
2022-11-02T09:41:15.843Z,19.35
2022-11-02T09:42:15.917Z,19.75
2022-11-02T09:43:16.121Z,19.84
2022-11-02T09:44:16.303Z,19.71
2022-11-02T09:45:16.512Z,19.44
2022-11-02T09:46:16.706Z,18.92
2022-11-02T09:48:23.311Z,18.82
2022-11-02T09:49:18.238Z,18.86
2022-11-02T09:50:17.501Z,18.81
2022-11-02T09:51:17.604Z,18.94
2022-11-02T09:52:17.814Z,18.71
2022-11-02T09:53:18.013Z,18.71
2022-11-02T09:54:18.315Z,18.88
2022-11-02T09:55:18.450Z,19.26
2022-11-02T09:56:18.531Z,19.59
2022-11-02T09:57:18.858Z,19.82
2022-11-02T09:58:18.924Z,19.48
2022-11-02T09:59:19.125Z,19.19
2022-11-02T10:00:19.344Z,18.94
2022-11-02T10:01:19.610Z,19.16
2022-11-02T10:02:19.722Z,18.78
2022-11-02T10:03:19.834Z,19.11
2022-11-02T10:04:20.034Z,19.56
2022-11-02T10:05:20.258Z,19.74
2022-11-02T10:06:20.472Z,19.59
2022-11-02T10:07:20.678Z,19.15
2022-11-02T10:08:20.867Z,19.05
2022-11-02T10:09:21.073Z,18.97
2022-11-02T10:10:21.397Z,19.15
2022-11-02T10:11:21.474Z,19.20
2022-11-02T10:12:21.670Z,19.26
2022-11-02T10:13:21.880Z,19.52
2022-11-02T10:14:22.089Z,19.67
2022-11-02T10:15:22.332Z,19.62
2022-11-02T10:16:22.538Z,19.84
2022-11-02T10:17:22.745Z,19.99
2022-11-02T10:18:22.933Z,20.17
2022-11-02T10:19:27.763Z,20.22
2022-11-02T10:20:24.334Z,20.26
2022-11-02T10:21:23.584Z,20.22
2022-11-02T10:22:23.673Z,20.37
2022-11-02T10:23:23.876Z,20.83
2022-11-02T10:24:24.124Z,20.74
2022-11-02T10:25:24.228Z,20.90
2022-11-02T10:26:24.441Z,20.71
2022-11-02T10:27:24.629Z,20.26
2022-11-02T10:28:24.873Z,20.21
2022-11-02T10:29:24.960Z,19.96
2022-11-02T10:30:25.177Z,19.93
2022-11-02T10:31:25.439Z,20.27
2022-11-02T10:32:25.540Z,20.53
2022-11-02T10:33:25.687Z,20.93
2022-11-02T10:34:25.764Z,20.80
2022-11-02T10:35:37.243Z,20.50
2022-11-02T10:36:27.138Z,20.55
2022-11-02T10:37:26.433Z,20.68
2022-11-02T10:38:26.511Z,20.92
2022-11-02T10:39:26.690Z,20.42
2022-11-02T10:40:26.860Z,20.39
2022-11-02T10:41:27.061Z,20.40
2022-11-02T10:42:27.237Z,20.68
2022-11-02T10:43:27.431Z,20.93
2022-11-02T10:44:27.745Z,21.14
2022-11-02T10:45:27.812Z,20.85
2022-11-02T10:46:27.995Z,20.78
2022-11-02T10:47:28.197Z,20.74
2022-11-02T10:48:28.376Z,20.70
2022-11-02T10:49:28.596Z,20.67
2022-11-02T10:50:28.785Z,20.89
2022-11-02T10:51:28.976Z,21.01
2022-11-02T10:52:29.187Z,21.13
2022-11-02T10:53:41.049Z,21.32
2022-11-02T10:54:31.004Z,21.66
2022-11-02T10:55:29.703Z,21.41
2022-11-02T10:56:29.897Z,21.75
2022-11-02T10:57:30.094Z,21.91
2022-11-02T10:58:30.287Z,22.15
2022-11-02T10:59:30.475Z,22.06
2022-11-02T11:00:30.759Z,21.77
2022-11-02T11:01:30.997Z,21.69
2022-11-02T11:02:31.031Z,21.70
2022-11-02T11:03:31.206Z,21.10
2022-11-02T11:04:31.383Z,20.68
2022-11-02T11:05:31.581Z,20.26
2022-11-02T11:06:31.748Z,20.66
2022-11-02T11:07:31.944Z,20.64
2022-11-02T11:08:32.119Z,20.80
2022-11-02T11:09:32.324Z,21.04
2022-11-02T11:10:32.483Z,20.66
2022-11-02T11:11:32.668Z,20.19
2022-11-02T11:12:32.880Z,20.11
2022-11-02T11:15:49.746Z,19.55
2022-11-02T11:16:34.506Z,18.83
2022-11-02T11:20:34.149Z,17.75
2022-11-02T11:21:34.366Z,17.56
2022-11-02T11:22:34.608Z,17.41
2022-11-02T11:23:34.811Z,17.27
2022-11-02T11:24:35.060Z,17.12
2022-11-02T11:25:35.264Z,17.12
2022-11-02T11:26:35.492Z,16.99
2022-11-02T11:27:35.724Z,17.09
2022-11-02T11:28:35.951Z,17.76
2022-11-02T11:29:36.176Z,17.59
2022-11-02T11:31:37.578Z,17.35
2022-11-02T11:32:36.832Z,17.30
2022-11-02T11:33:37.065Z,17.12
2022-11-02T11:34:37.316Z,17.01
2022-11-02T11:35:37.575Z,17.23
2022-11-02T11:36:37.835Z,17.13
2022-11-02T11:37:38.106Z,16.94
2022-11-02T11:38:38.355Z,16.89
2022-11-02T11:39:38.592Z,16.80
2022-11-02T11:40:38.836Z,16.76
2022-11-02T11:41:39.086Z,16.61
2022-11-02T11:42:39.370Z,16.58
2022-11-02T11:43:39.613Z,16.51
2022-11-02T11:44:39.870Z,16.50
2022-11-02T11:45:40.115Z,16.47
2022-11-02T11:46:40.377Z,16.40
2022-11-02T11:47:40.629Z,16.34
2022-11-02T11:48:40.968Z,16.57
2022-11-02T11:50:07.339Z,16.69
2022-11-02T11:50:42.312Z,16.76
2022-11-02T11:51:41.608Z,16.73
2022-11-02T11:52:41.875Z,16.64
2022-11-02T11:53:42.125Z,16.55
2022-11-02T11:54:42.397Z,16.43
2022-11-02T11:55:42.651Z,16.40
2022-11-02T11:56:42.904Z,16.32
2022-11-02T11:57:43.208Z,16.31
2022-11-02T11:58:46.564Z,16.32
2022-11-02T11:59:44.665Z,16.29
2022-11-02T12:00:43.916Z,16.26
2022-11-02T12:01:44.252Z,16.24
2022-11-02T12:02:45.023Z,16.16
2022-11-02T12:03:44.699Z,16.16
2022-11-02T12:04:44.969Z,16.16
2022-11-02T12:05:45.226Z,16.17
2022-11-02T12:06:45.526Z,16.40
2022-11-02T12:07:45.786Z,16.46
2022-11-02T12:08:46.041Z,16.69
2022-11-02T12:09:46.305Z,16.91
2022-11-02T12:10:46.572Z,17.46
2022-11-02T12:11:46.837Z,17.79
2022-11-02T12:12:47.129Z,17.56
2022-11-02T12:13:47.379Z,17.46
2022-11-02T12:14:47.633Z,18.03
2022-11-02T12:15:47.885Z,18.03
2022-11-02T12:16:48.119Z,17.80
2022-11-02T12:17:48.386Z,17.65
2022-11-02T12:18:48.673Z,17.56
2022-11-02T12:19:48.935Z,17.56
2022-11-02T12:20:49.200Z,17.44
2022-11-02T12:21:49.442Z,17.73
2022-11-02T12:22:49.697Z,18.33
2022-11-02T12:23:49.945Z,18.39
2022-11-02T12:24:50.180Z,19.11
2022-11-02T12:25:50.412Z,19.38
2022-11-02T12:26:50.645Z,19.79
2022-11-02T12:27:51.005Z,19.84
2022-11-02T12:28:51.130Z,20.27
2022-11-02T12:29:51.379Z,19.48
2022-11-02T12:30:51.586Z,18.53
2022-11-02T12:31:54.552Z,18.19
2022-11-02T12:32:53.002Z,17.87
2022-11-02T12:33:52.252Z,17.76
2022-11-02T12:35:02.998Z,18.55
2022-11-02T12:35:53.673Z,18.21
2022-11-02T12:37:31.309Z,17.71
2022-11-02T12:37:54.091Z,17.68
2022-11-02T12:38:53.327Z,17.82
2022-11-02T12:39:53.546Z,17.78
2022-11-02T12:40:53.873Z,18.34
2022-11-02T12:41:53.999Z,18.06
2022-11-02T12:42:54.260Z,18.74
2022-11-02T12:43:54.534Z,19.09
2022-11-02T12:44:54.770Z,19.08
2022-11-02T12:45:55.071Z,19.55
2022-11-02T12:46:55.191Z,19.35
2022-11-02T12:47:55.445Z,18.52
2022-11-02T12:48:55.667Z,17.79
2022-11-02T12:49:55.903Z,17.49
2022-11-02T12:50:56.141Z,17.35
2022-11-02T12:51:56.383Z,17.78
2022-11-02T12:52:56.632Z,17.76
2022-11-02T12:53:56.877Z,18.49
2022-11-02T12:54:57.126Z,18.86
2022-11-02T12:55:57.372Z,19.55
2022-11-02T12:56:57.600Z,19.59
2022-11-02T12:57:57.841Z,18.64
2022-11-02T12:59:06.100Z,17.88
2022-11-02T12:59:58.282Z,17.71
2022-11-02T13:00:58.577Z,17.42
2022-11-02T13:01:58.976Z,18.15
2022-11-02T13:02:59.004Z,18.76
2022-11-02T13:03:59.249Z,19.45
2022-11-02T13:04:59.488Z,19.84
2022-11-02T13:05:59.725Z,20.18
2022-11-02T13:06:59.965Z,20.67
2022-11-02T13:08:00.212Z,20.07
2022-11-02T13:09:00.451Z,19.19
2022-11-02T13:10:00.715Z,19.26
2022-11-02T13:11:00.922Z,19.45
2022-11-02T13:12:01.147Z,18.91
2022-11-02T13:13:01.379Z,18.97